createdAt,value
2022-10-28T00:04:53.056Z,87.20
2022-10-28T00:14:56.524Z,87.35
2022-10-28T00:25:00.293Z,87.46
2022-10-28T00:35:03.334Z,87.68
2022-10-28T00:45:09.540Z,87.90
2022-10-28T00:55:15.058Z,88.07
2022-10-28T01:05:17.504Z,88.06
2022-10-28T01:15:27.515Z,88.65
2022-10-28T01:25:46.047Z,89.03
2022-10-28T01:35:51.909Z,89.53
2022-10-28T01:45:56.169Z,89.47
2022-10-28T01:56:04.512Z,89.74
2022-10-28T02:06:15.054Z,89.85
2022-10-28T02:16:18.254Z,89.64
2022-10-28T02:26:24.694Z,89.80
2022-10-28T02:36:32.362Z,89.87
2022-10-28T02:46:37.668Z,90.29
2022-10-28T02:56:46.448Z,90.53
2022-10-28T03:06:49.966Z,90.68
2022-10-28T03:16:53.603Z,90.67
2022-10-28T03:26:57.255Z,90.66
2022-10-28T03:37:00.800Z,90.88
2022-10-28T03:47:04.464Z,91.12
2022-10-28T03:57:08.044Z,91.56
2022-10-28T04:07:11.753Z,91.67
2022-10-28T04:17:16.286Z,91.66
2022-10-28T04:27:19.866Z,91.42
2022-10-28T04:37:23.437Z,91.31
2022-10-28T04:47:26.886Z,91.45
2022-10-28T04:57:31.953Z,91.62
2022-10-28T05:07:35.573Z,91.70
2022-10-28T05:17:38.683Z,91.63
2022-10-28T05:27:42.495Z,91.83
2022-10-28T05:37:45.771Z,91.74
2022-10-28T05:47:49.673Z,91.75
2022-10-28T05:57:54.025Z,91.85
2022-10-28T06:07:57.735Z,92.02
2022-10-28T06:17:59.895Z,92.03
2022-10-28T06:28:05.834Z,92.13
2022-10-28T06:38:13.843Z,92.06
2022-10-28T06:48:19.147Z,92.34
2022-10-28T06:58:23.424Z,92.70
2022-10-28T07:08:34.510Z,92.79
2022-10-28T07:18:38.392Z,92.60
2022-10-28T07:28:41.753Z,92.03
2022-10-28T07:38:48.127Z,91.41
2022-10-28T07:48:51.633Z,90.42
2022-10-28T07:58:55.984Z,89.36
2022-10-28T08:08:59.610Z,87.55
2022-10-28T08:19:07.512Z,86.70
2022-10-28T08:29:12.542Z,86.24
2022-10-28T08:39:16.356Z,85.06
2022-10-28T08:49:24.700Z,84.77
2022-10-28T08:59:27.135Z,84.45
2022-10-28T09:09:31.870Z,83.92
2022-10-28T09:19:37.203Z,82.91
2022-10-28T09:29:45.584Z,82.03
2022-10-28T09:39:51.266Z,81.20
2022-10-28T09:49:57.625Z,80.09
2022-10-28T10:00:01.580Z,79.80
2022-10-28T10:20:10.958Z,79.74
2022-10-28T10:30:16.920Z,79.22
2022-10-28T10:40:47.206Z,78.72
2022-10-28T10:50:52.556Z,78.15
2022-10-28T11:00:56.913Z,77.97
2022-10-28T11:11:12.676Z,77.63
2022-10-28T11:21:27.720Z,77.21
2022-10-28T11:32:03.034Z,77.03
2022-10-28T11:42:11.055Z,76.27
2022-10-28T11:52:21.717Z,75.90
2022-10-28T12:02:30.632Z,75.92
2022-10-28T12:12:33.865Z,75.65
2022-10-28T12:22:46.329Z,75.42
2022-10-28T12:33:12.348Z,75.11
2022-10-28T12:43:24.574Z,74.72
2022-10-28T12:53:30.004Z,74.57
2022-10-28T13:03:33.524Z,74.65
2022-10-28T13:13:54.849Z,74.45
2022-10-28T13:23:58.551Z,73.73
2022-10-28T13:34:02.262Z,73.74
2022-10-28T13:44:25.961Z,72.95
2022-10-28T13:54:30.342Z,73.03
2022-10-28T14:04:34.950Z,73.18
2022-10-28T14:14:39.822Z,73.00
2022-10-28T14:25:02.796Z,73.24
2022-10-28T14:35:18.180Z,73.27
2022-10-28T14:45:41.013Z,73.26
2022-10-28T14:55:46.930Z,73.44
2022-10-28T15:05:50.625Z,73.62
2022-10-28T15:16:19.098Z,73.66
2022-10-28T15:26:41.057Z,74.04
2022-10-28T15:36:49.295Z,74.29
2022-10-28T15:46:52.727Z,74.75
2022-10-28T15:56:59.249Z,75.18
2022-10-28T16:07:06.159Z,75.51
2022-10-28T16:17:15.120Z,75.89
2022-10-28T16:27:18.185Z,76.42
2022-10-28T16:37:21.627Z,76.76
2022-10-28T16:47:26.448Z,77.20
2022-10-28T16:57:30.021Z,77.54
2022-10-28T17:07:33.859Z,77.91
2022-10-28T17:17:37.529Z,78.05
2022-10-28T17:27:41.716Z,78.36
2022-10-28T17:37:45.535Z,78.50
2022-10-28T17:47:48.644Z,78.68
2022-10-28T17:57:52.829Z,78.75
2022-10-28T18:07:56.981Z,78.81
2022-10-28T18:18:00.705Z,79.10
2022-10-28T18:28:05.225Z,79.15
2022-10-28T18:38:09.021Z,79.30
2022-10-28T18:48:30.669Z,79.68
2022-10-28T18:58:34.540Z,79.80
2022-10-28T19:08:58.025Z,79.97
2022-10-28T19:19:02.673Z,80.01
2022-10-28T19:29:24.872Z,80.16
2022-10-28T19:39:46.933Z,80.34
2022-10-28T19:49:50.710Z,80.46
2022-10-28T19:59:54.772Z,80.55
2022-10-28T20:20:03.558Z,81.23
2022-10-28T20:30:24.601Z,81.44
2022-10-28T20:40:28.248Z,81.65
2022-10-28T20:50:31.831Z,81.96
2022-10-28T21:00:54.608Z,82.02
2022-10-28T21:11:17.732Z,82.15
2022-10-28T21:21:39.872Z,82.31
2022-10-28T21:31:43.522Z,82.47
2022-10-28T21:41:47.273Z,82.63
2022-10-28T21:51:51.392Z,82.83
2022-10-28T22:02:13.452Z,82.94
2022-10-28T22:12:17.316Z,83.11
2022-10-28T22:22:20.784Z,83.27
2022-10-28T22:32:24.412Z,83.39
2022-10-28T22:42:46.173Z,83.57
2022-10-28T22:53:08.190Z,83.76
2022-10-28T23:03:34.823Z,84.03
2022-10-28T23:13:38.789Z,84.22
2022-10-28T23:23:46.201Z,84.36
2022-10-28T23:34:09.493Z,84.53
2022-10-28T23:44:31.188Z,84.65
2022-10-28T23:54:34.841Z,84.80
